Time;durP1;ratioP1;P1;durP2;ratioP2;P2;SDS_P1;SDS_P2;PMS_P1;PMS_P2;Temp;Humidity;BMP_temperature;BMP_pressure;BME280_temperature;BME280_humidity;BME280_pressure;Samples;Min_cycle;Max_cycle;Signal;HPM_P1;HPM_P2
2022/08/14 00:02:26;;;;;;;10.17;9.37;;;24.10;71.20;;;;;;5032242;28;20519;-69
2022/08/14 00:04:51;;;;;;;10.47;9.77;;;24.10;70.90;;;;;;5033462;28;20281;-69
2022/08/14 00:07:17;;;;;;;9.30;8.60;;;24.00;71.10;;;;;;5031874;28;20520;-69
2022/08/14 00:09:44;;;;;;;10.03;9.03;;;24.00;71.80;;;;;;5031422;28;20191;-69
2022/08/14 00:12:10;;;;;;;9.70;8.93;;;24.00;72.00;;;;;;5032875;28;20417;-69
2022/08/14 00:14:37;;;;;;;10.30;9.20;;;24.00;72.90;;;;;;5033476;28;20426;-69
2022/08/14 00:17:04;;;;;;;9.77;9.07;;;23.90;72.80;;;;;;5031082;28;20487;-69
2022/08/14 00:19:29;;;;;;;10.20;9.43;;;23.90;73.30;;;;;;5033015;28;20519;-69
2022/08/14 00:21:55;;;;;;;10.03;9.23;;;23.90;73.50;;;;;;5028963;28;20536;-68
2022/08/14 00:24:22;;;;;;;9.73;9.03;;;23.80;74.00;;;;;;5030519;28;20433;-68
2022/08/14 00:26:48;;;;;;;9.63;8.93;;;23.80;74.40;;;;;;5030530;28;20186;-68
2022/08/14 00:29:13;;;;;;;9.80;9.20;;;23.70;74.80;;;;;;5032561;28;20473;-69
2022/08/14 00:31:39;;;;;;;10.23;9.43;;;23.70;75.30;;;;;;5031444;28;20680;-69
2022/08/14 00:34:05;;;;;;;9.83;9.13;;;23.60;75.50;;;;;;5031240;28;20178;-69
2022/08/14 00:36:30;;;;;;;9.40;8.80;;;23.60;76.20;;;;;;5030909;28;20204;-69
2022/08/14 00:38:56;;;;;;;9.83;9.03;;;23.60;76.40;;;;;;5031778;28;20182;-69
2022/08/14 00:41:22;;;;;;;9.80;9.10;;;23.50;76.70;;;;;;5031641;28;20189;-68
2022/08/14 00:43:48;;;;;;;10.00;9.10;;;23.50;77.00;;;;;;5031414;28;20249;-68
2022/08/14 00:46:14;;;;;;;9.83;9.23;;;23.50;77.90;;;;;;5030470;28;20614;-69
2022/08/14 00:48:39;;;;;;;10.10;9.50;;;23.40;77.70;;;;;;5030240;28;20540;-69
2022/08/14 00:51:09;;;;;;;11.27;10.30;;;23.30;78.30;;;;;;5030306;28;20619;-69
2022/08/14 00:53:37;;;;;;;10.60;9.87;;;23.30;79.00;;;;;;5028827;28;20499;-69
2022/08/14 00:56:03;;;;;;;9.93;9.20;;;23.30;79.20;;;;;;5030086;28;20778;-69
2022/08/14 00:58:29;;;;;;;11.13;10.33;;;23.20;79.70;;;;;;5030110;28;20527;-69
2022/08/14 01:00:56;;;;;;;10.70;10.00;;;23.20;80.10;;;;;;5031728;28;20512;-68
2022/08/14 01:03:23;;;;;;;10.77;9.93;;;23.10;80.30;;;;;;5029370;28;20206;-69
2022/08/14 01:05:50;;;;;;;11.00;10.20;;;23.10;80.40;;;;;;5030755;28;20781;-69
2022/08/14 01:08:28;;;;;;;11.87;10.97;;;23.10;80.80;;;;;;5028328;28;20440;-69
2022/08/14 01:10:55;;;;;;;10.93;10.20;;;23.10;81.20;;;;;;5031517;28;20486;-69
2022/08/14 01:13:31;;;;;;;10.70;9.83;;;23.10;81.50;;;;;;5030366;28;20464;-68
2022/08/14 01:15:59;;;;;;;11.40;10.50;;;23.00;81.40;;;;;;5029475;28;20823;-69
2022/08/14 01:21:16;;;;;;;12.00;11.10;;;23.00;82.40;;;;;;5028902;28;20433;-69
2022/08/14 01:23:45;;;;;;;11.43;10.63;;;23.00;83.00;;;;;;5028988;28;20473;-69
2022/08/14 01:26:12;;;;;;;11.57;10.77;;;22.90;82.80;;;;;;5030175;28;20425;-69
2022/08/14 01:28:38;;;;;;;11.07;10.20;;;22.90;83.00;;;;;;5029534;28;20433;-69
2022/08/14 01:31:14;;;;;;;11.30;10.50;;;22.80;82.90;;;;;;5030915;28;20431;-69
2022/08/14 01:33:43;;;;;;;12.80;11.80;;;22.80;83.70;;;;;;5027905;28;20429;-69
2022/08/14 01:36:10;;;;;;;12.27;11.37;;;22.80;83.60;;;;;;5029168;28;20421;-70
2022/08/14 01:38:37;;;;;;;11.33;10.53;;;22.70;83.70;;;;;;5028036;28;20780;-69
2022/08/14 01:41:06;;;;;;;11.17;10.40;;;22.70;83.80;;;;;;5030037;28;20440;-68
2022/08/14 01:43:38;;;;;;;12.40;11.30;;;22.70;84.10;;;;;;5030615;28;20469;-69
2022/08/14 01:46:05;;;;;;;11.57;10.70;;;22.70;84.30;;;;;;5029175;28;20397;-69
2022/08/14 01:48:31;;;;;;;11.17;10.37;;;22.60;84.90;;;;;;5028352;28;20456;-69
2022/08/14 01:51:01;;;;;;;11.33;10.53;;;22.70;85.30;;;;;;5030490;28;20876;-68
2022/08/14 01:53:28;;;;;;;12.27;11.10;;;22.80;85.60;;;;;;5028279;28;20437;-69
2022/08/14 01:56:03;;;;;;;11.73;10.83;;;22.80;85.80;;;;;;5030679;28;20428;-69
2022/08/14 01:58:29;;;;;;;11.87;10.97;;;22.80;86.20;;;;;;5028337;28;21091;-69
2022/08/14 02:00:57;;;;;;;11.93;11.07;;;22.80;86.50;;;;;;5028813;28;20428;-69
2022/08/14 02:03:34;;;;;;;12.17;11.27;;;22.90;86.70;;;;;;5028590;28;20461;-69
2022/08/14 02:06:01;;;;;;;12.07;11.13;;;22.90;87.20;;;;;;5016175;28;20471;-69
2022/08/14 02:08:31;;;;;;;12.13;11.23;;;22.90;87.00;;;;;;5030725;28;20463;-68
2022/08/14 02:11:17;;;;;;;11.70;10.90;;;22.90;87.40;;;;;;5033623;28;20428;-68
2022/08/14 02:13:49;;;;;;;12.00;11.00;;;22.80;87.20;;;;;;5016901;28;20502;-68
2022/08/14 02:16:26;;;;;;;12.40;11.50;;;22.80;87.40;;;;;;5032701;28;20899;-69
2022/08/14 02:18:53;;;;;;;12.33;11.23;;;22.70;87.80;;;;;;5032600;28;20458;-69
2022/08/14 02:21:20;;;;;;;11.37;10.43;;;22.80;87.90;;;;;;5032248;28;20939;-69
2022/08/14 02:23:47;;;;;;;11.80;10.87;;;22.70;88.10;;;;;;5033719;28;20476;-69
2022/08/14 02:26:22;;;;;;;12.73;11.73;;;22.70;88.60;;;;;;5032238;28;20459;-69
2022/08/14 02:28:49;;;;;;;11.50;10.60;;;22.60;89.00;;;;;;5017519;28;20445;-69
2022/08/14 02:31:16;;;;;;;12.33;11.43;;;22.60;89.70;;;;;;5031958;28;20482;-69
2022/08/14 02:33:41;;;;;;;12.33;11.43;;;22.60;90.10;;;;;;5032923;28;20442;-69
2022/08/14 02:36:08;;;;;;;11.90;10.90;;;22.50;90.00;;;;;;5033787;28;20437;-69
2022/08/14 02:38:35;;;;;;;13.23;12.33;;;22.50;90.30;;;;;;5033415;28;20182;-69
2022/08/14 02:41:01;;;;;;;12.83;11.77;;;22.40;90.60;;;;;;5033733;28;20413;-69
2022/08/14 02:43:29;;;;;;;14.13;13.07;;;22.40;90.80;;;;;;5032671;28;20583;-69
2022/08/14 02:45:55;;;;;;;12.77;11.87;;;22.40;90.70;;;;;;5033321;28;20201;-69
2022/08/14 02:48:21;;;;;;;12.47;11.57;;;22.40;90.80;;;;;;5032447;28;20522;-69
2022/08/14 02:50:48;;;;;;;13.10;12.10;;;22.40;90.80;;;;;;5030558;28;20239;-68
2022/08/14 02:53:14;;;;;;;13.27;12.20;;;22.40;91.00;;;;;;5029265;28;20281;-70
2022/08/14 02:55:42;;;;;;;12.80;11.60;;;22.40;91.20;;;;;;5030766;28;20535;-69
2022/08/14 02:58:08;;;;;;;12.60;11.60;;;22.40;91.20;;;;;;5033216;28;20429;-69
2022/08/14 03:00:34;;;;;;;12.90;11.90;;;22.40;91.20;;;;;;5034009;28;20449;-68
2022/08/14 03:03:03;;;;;;;13.23;12.23;;;22.40;91.40;;;;;;5032295;28;20457;-68
2022/08/14 03:05:29;;;;;;;12.07;11.07;;;22.50;91.60;;;;;;5031173;28;20433;-69
2022/08/14 03:08:05;;;;;;;12.67;11.77;;;22.50;91.70;;;;;;5034369;28;20429;-68
2022/08/14 03:10:32;;;;;;;12.50;11.60;;;22.40;91.60;;;;;;5033536;28;20892;-69
2022/08/14 03:12:57;;;;;;;12.47;11.47;;;22.50;91.60;;;;;;5032219;28;20792;-68
2022/08/14 03:15:23;;;;;;;13.20;12.10;;;22.40;91.80;;;;;;5033439;28;20413;-69
2022/08/14 03:17:51;;;;;;;13.83;12.83;;;22.40;91.90;;;;;;5031646;28;20618;-69
2022/08/14 03:20:18;;;;;;;13.70;12.60;;;22.40;91.90;;;;;;5032420;28;20697;-69
2022/08/14 03:22:43;;;;;;;13.50;12.27;;;22.30;92.20;;;;;;5032716;28;20544;-68
2022/08/14 03:25:11;;;;;;;12.77;11.87;;;22.10;92.70;;;;;;5034194;28;20433;-68
2022/08/14 03:27:37;;;;;;;12.93;11.83;;;22.10;93.00;;;;;;5033174;28;20205;-68
2022/08/14 03:30:03;;;;;;;12.70;11.70;;;22.00;93.20;;;;;;5033085;28;20436;-69
2022/08/14 03:32:32;;;;;;;13.03;12.03;;;22.00;93.40;;;;;;5033164;28;20474;-69
2022/08/14 03:34:58;;;;;;;13.00;11.90;;;22.00;93.50;;;;;;5030884;28;20484;-68
2022/08/14 03:37:28;;;;;;;12.30;11.40;;;22.00;93.70;;;;;;5032836;28;20885;-68
2022/08/14 03:39:54;;;;;;;12.10;11.23;;;22.10;93.80;;;;;;5033788;28;20766;-68
2022/08/14 03:42:21;;;;;;;13.40;12.40;;;22.20;93.70;;;;;;5032834;28;20869;-68
2022/08/14 03:44:47;;;;;;;12.80;11.90;;;22.20;93.60;;;;;;5033690;28;20428;-68
2022/08/14 03:47:13;;;;;;;12.67;11.67;;;22.20;93.70;;;;;;5031059;28;20792;-69
2022/08/14 03:49:39;;;;;;;13.40;12.17;;;22.20;93.60;;;;;;5033107;28;20425;-68
2022/08/14 03:52:05;;;;;;;13.50;12.53;;;22.20;93.70;;;;;;5032427;28;20245;-68
2022/08/14 03:54:34;;;;;;;13.10;12.00;;;22.20;93.70;;;;;;5030489;28;20464;-68
2022/08/14 03:57:01;;;;;;;13.70;12.50;;;22.20;93.80;;;;;;5033127;28;20265;-68
2022/08/14 03:59:26;;;;;;;13.20;12.30;;;22.20;93.90;;;;;;5032323;28;21039;-69
2022/08/14 04:01:52;;;;;;;13.35;12.25;;;22.20;94.00;;;;;;5033285;28;20504;-68
2022/08/14 04:04:18;;;;;;;12.47;11.57;;;22.20;94.20;;;;;;5032465;28;20252;-69
2022/08/14 04:06:43;;;;;;;11.60;10.80;;;22.10;94.20;;;;;;5032036;28;20182;-68
2022/08/14 04:09:09;;;;;;;13.27;11.90;;;22.10;94.40;;;;;;5032933;28;20180;-68
2022/08/14 04:11:36;;;;;;;12.20;11.23;;;22.10;94.50;;;;;;5030557;28;20245;-69
2022/08/14 04:14:04;;;;;;;11.80;10.90;;;22.10;94.30;;;;;;5031779;28;20221;-69
2022/08/14 04:16:30;;;;;;;12.60;11.50;;;22.10;94.30;;;;;;5031038;28;20472;-68
2022/08/14 04:18:58;;;;;;;13.27;12.07;;;22.00;94.50;;;;;;5033052;28;20423;-68
2022/08/14 04:21:28;;;;;;;13.70;12.50;;;22.00;94.90;;;;;;5032196;28;20420;-69
2022/08/14 04:23:56;;;;;;;13.80;12.50;;;22.00;95.00;;;;;;5032672;28;20471;-68
2022/08/14 04:26:24;;;;;;;13.27;12.27;;;22.00;95.00;;;;;;5027617;28;20424;-69
2022/08/14 04:28:50;;;;;;;13.20;12.20;;;22.00;94.90;;;;;;5032968;28;20431;-68
2022/08/14 04:31:18;;;;;;;13.30;12.30;;;22.00;95.00;;;;;;5031292;28;20780;-69
2022/08/14 04:33:44;;;;;;;13.67;12.57;;;22.00;95.00;;;;;;5032522;28;20431;-68
2022/08/14 04:36:10;;;;;;;13.80;12.73;;;22.00;95.10;;;;;;5029876;28;20433;-69
2022/08/14 04:44:04;;;;;;;12.63;11.70;;;22.00;95.10;;;;;;5033131;28;20849;-68
2022/08/14 04:46:33;;;;;;;14.50;13.23;;;22.00;95.30;;;;;;5032416;28;20492;-69
2022/08/14 04:49:00;;;;;;;14.37;13.17;;;22.00;95.40;;;;;;5032848;28;20455;-68
2022/08/14 04:51:27;;;;;;;13.70;12.60;;;22.00;95.30;;;;;;5030314;28;20476;-68
2022/08/14 04:53:54;;;;;;;14.17;13.07;;;22.00;95.30;;;;;;5032420;28;20429;-68
2022/08/14 04:56:23;;;;;;;13.97;12.77;;;22.00;95.80;;;;;;5030691;28;20425;-69
2022/08/14 04:59:00;;;;;;;15.63;14.13;;;21.90;95.40;;;;;;5014702;28;20420;-68
2022/08/14 05:01:26;;;;;;;14.10;12.90;;;21.90;95.80;;;;;;5028148;28;20487;-69
2022/08/14 05:03:53;;;;;;;13.83;12.77;;;21.90;95.70;;;;;;5032330;28;20560;-68
2022/08/14 05:06:20;;;;;;;14.37;13.27;;;21.90;95.80;;;;;;5030744;28;20474;-69
2022/08/14 05:08:46;;;;;;;14.93;13.70;;;21.90;95.70;;;;;;5031731;28;20482;-68
2022/08/14 05:11:13;;;;;;;16.40;15.00;;;22.00;95.60;;;;;;5032308;28;20421;-68
2022/08/14 05:13:40;;;;;;;14.80;13.60;;;22.00;95.60;;;;;;5031701;28;20423;-68
2022/08/14 05:16:06;;;;;;;14.00;12.90;;;22.00;95.50;;;;;;5032519;28;20427;-69
2022/08/14 05:18:35;;;;;;;14.97;13.77;;;22.00;95.80;;;;;;5031375;28;20417;-68
2022/08/14 05:21:04;;;;;;;14.97;13.80;;;22.00;95.70;;;;;;5031309;28;20440;-68
2022/08/14 05:23:33;;;;;;;16.50;15.10;;;22.10;95.80;;;;;;5031270;28;20476;-69
2022/08/14 05:26:11;;;;;;;14.43;13.33;;;22.10;95.60;;;;;;5029013;28;20520;-68
2022/08/14 05:28:40;;;;;;;14.73;13.50;;;22.10;95.70;;;;;;5029951;28;20486;-68
2022/08/14 05:31:06;;;;;;;14.23;13.13;;;22.00;95.80;;;;;;5030497;28;20456;-68
2022/08/14 05:33:33;;;;;;;15.80;14.47;;;22.10;95.90;;;;;;5029924;28;20433;-68
2022/08/14 05:36:02;;;;;;;13.97;12.87;;;22.10;95.90;;;;;;5031808;28;20190;-68
2022/08/14 05:38:34;;;;;;;14.50;13.23;;;22.00;96.20;;;;;;5031558;28;20451;-69
2022/08/14 05:41:01;;;;;;;15.70;14.27;;;22.10;96.40;;;;;;5027339;28;20466;-69
2022/08/14 05:43:28;;;;;;;16.10;14.80;;;22.10;96.20;;;;;;5030077;28;20999;-69
2022/08/14 05:45:54;;;;;;;13.87;12.67;;;22.20;96.10;;;;;;5036313;28;20405;-69
2022/08/14 05:48:20;;;;;;;18.60;16.80;;;22.20;96.10;;;;;;5034708;28;20757;-70
2022/08/14 05:50:45;;;;;;;14.97;13.67;;;22.30;96.00;;;;;;5035139;28;20469;-69
2022/08/14 05:53:11;;;;;;;29.53;26.63;;;22.40;95.90;;;;;;5031031;28;20217;-69
2022/08/14 05:55:37;;;;;;;21.20;19.20;;;22.40;96.00;;;;;;5033569;28;20265;-69
2022/08/14 05:58:07;;;;;;;15.30;14.10;;;22.50;96.00;;;;;;5033986;28;20265;-69
2022/08/14 06:00:39;;;;;;;14.83;13.53;;;22.60;96.00;;;;;;5030289;28;20217;-69
2022/08/14 06:03:07;;;;;;;15.00;13.60;;;22.70;96.20;;;;;;5035347;28;20524;-69
2022/08/14 06:05:33;;;;;;;14.60;13.40;;;22.70;96.00;;;;;;5032588;28;20782;-69
2022/08/14 06:07:59;;;;;;;14.37;13.07;;;22.80;95.90;;;;;;5033018;28;20433;-74
2022/08/14 06:10:27;;;;;;;15.33;14.00;;;22.80;95.80;;;;;;5016148;28;20913;-74
2022/08/14 06:12:53;;;;;;;14.83;13.70;;;22.90;95.80;;;;;;5015673;28;20233;-75
2022/08/14 06:15:19;;;;;;;14.30;13.07;;;23.10;96.00;;;;;;5018976;28;20796;-75
2022/08/14 06:17:48;;;;;;;15.43;14.23;;;23.20;95.40;;;;;;5031597;28;20436;-74
2022/08/14 06:20:15;;;;;;;14.60;13.60;;;23.30;95.10;;;;;;5038623;28;20285;-75
2022/08/14 06:22:42;;;;;;;15.33;14.23;;;23.50;94.80;;;;;;5047247;28;20841;-75
2022/08/14 06:25:10;;;;;;;15.73;14.53;;;23.60;94.60;;;;;;5019784;28;20659;-75
2022/08/14 06:27:46;;;;;;;15.40;14.00;;;23.60;94.30;;;;;;5035572;28;20436;-74
2022/08/14 06:30:20;;;;;;;16.80;15.50;;;23.60;94.30;;;;;;5043815;28;20761;-75
2022/08/14 06:32:46;;;;;;;13.93;12.80;;;23.70;94.30;;;;;;5023847;28;20924;-75
2022/08/14 06:35:14;;;;;;;14.10;13.00;;;23.80;94.20;;;;;;5029950;28;20439;-75
2022/08/14 06:37:39;;;;;;;13.80;12.70;;;23.90;94.00;;;;;;5035007;28;20468;-75
2022/08/14 06:40:07;;;;;;;14.73;13.50;;;24.00;93.80;;;;;;5035633;28;20421;-75
2022/08/14 06:42:33;;;;;;;14.23;13.13;;;24.10;93.70;;;;;;5032689;28;20202;-74
2022/08/14 06:45:00;;;;;;;19.13;17.47;;;24.20;93.50;;;;;;5018326;28;20445;-75
2022/08/14 06:47:26;;;;;;;16.00;14.53;;;24.30;93.40;;;;;;5030230;28;20777;-74
2022/08/14 06:49:51;;;;;;;17.20;15.60;;;24.30;93.20;;;;;;5028120;28;20447;-75
2022/08/14 06:52:17;;;;;;;15.27;14.07;;;24.50;93.10;;;;;;5021692;28;20476;-75
2022/08/14 06:54:44;;;;;;;17.70;16.20;;;24.50;92.80;;;;;;5024371;28;20194;-75
2022/08/14 06:57:11;;;;;;;17.23;15.70;;;24.60;92.60;;;;;;5029053;28;20438;-74
2022/08/14 06:59:36;;;;;;;14.43;13.23;;;24.70;92.60;;;;;;5030261;28;20441;-75
2022/08/14 07:07:38;;;;;;;13.40;12.40;;;24.80;92.90;;;;;;5032665;28;20443;-75
2022/08/14 07:10:05;;;;;;;13.70;12.50;;;24.80;92.30;;;;;;5029310;28;20432;-75
2022/08/14 07:12:31;;;;;;;14.43;13.30;;;24.80;92.50;;;;;;5027293;28;20441;-70
2022/08/14 07:14:57;;;;;;;14.70;13.23;;;24.80;92.70;;;;;;5034509;28;20426;-69
2022/08/14 07:17:23;;;;;;;14.27;13.07;;;24.90;92.50;;;;;;5034748;28;20478;-69
2022/08/14 07:19:49;;;;;;;198.67;167.30;;;24.90;92.40;;;;;;5033381;28;20421;-69
2022/08/14 07:22:15;;;;;;;244.33;207.60;;;24.90;92.70;;;;;;5034711;28;20190;-68
2022/08/14 07:24:41;;;;;;;29.47;26.40;;;25.00;92.50;;;;;;5032819;28;20190;-69
2022/08/14 07:27:06;;;;;;;24.37;22.00;;;25.10;92.50;;;;;;5032928;28;20417;-69
2022/08/14 07:29:32;;;;;;;23.57;21.37;;;25.20;92.30;;;;;;5033431;28;20209;-67
2022/08/14 07:31:58;;;;;;;420.43;374.73;;;25.30;91.40;;;;;;5033992;28;20179;-69
2022/08/14 07:34:23;;;;;;;48.73;43.93;;;25.30;91.30;;;;;;5033935;28;20626;-69
2022/08/14 07:36:49;;;;;;;23.03;21.00;;;25.50;91.60;;;;;;5033605;28;20190;-68
2022/08/14 07:39:15;;;;;;;19.63;17.93;;;25.60;91.40;;;;;;5031702;28;20182;-68
2022/08/14 07:41:43;;;;;;;16.60;15.20;;;25.60;91.40;;;;;;5031014;28;20182;-75
2022/08/14 07:44:12;;;;;;;23.17;21.17;;;25.70;91.20;;;;;;5033618;28;20621;-76
2022/08/14 07:46:39;;;;;;;15.73;14.53;;;25.80;91.00;;;;;;5033490;28;20417;-75
2022/08/14 07:49:06;;;;;;;14.37;13.27;;;25.80;91.00;;;;;;5033869;28;20495;-71
2022/08/14 07:51:32;;;;;;;14.50;13.40;;;25.90;91.50;;;;;;5032893;28;20988;-75
2022/08/14 07:53:58;;;;;;;14.10;13.10;;;25.90;91.20;;;;;;5033909;28;20499;-74
2022/08/14 07:56:24;;;;;;;383.90;326.57;;;26.00;90.70;;;;;;5033804;28;20418;-75
2022/08/14 07:58:50;;;;;;;59.07;52.83;;;26.00;90.50;;;;;;5038858;28;20433;-75
2022/08/14 08:01:17;;;;;;;21.07;19.23;;;26.10;90.70;;;;;;5031187;28;20546;-75
2022/08/14 08:03:46;;;;;;;17.67;16.03;;;26.20;90.70;;;;;;5030128;28;20471;-75
2022/08/14 08:06:15;;;;;;;18.77;16.93;;;26.20;90.50;;;;;;5033341;28;20424;-76
2022/08/14 08:08:43;;;;;;;16.37;14.87;;;26.30;90.60;;;;;;5032588;28;20941;-75
2022/08/14 08:11:10;;;;;;;16.47;14.77;;;26.40;90.40;;;;;;5032759;28;20431;-75
2022/08/14 08:13:41;;;;;;;14.40;13.30;;;26.50;90.00;;;;;;5030849;28;20441;-75
2022/08/14 08:16:09;;;;;;;17.23;15.80;;;26.60;89.50;;;;;;5032681;28;20464;-75
2022/08/14 08:18:35;;;;;;;16.70;15.30;;;26.70;88.20;;;;;;5031581;28;20424;-75
2022/08/14 08:21:00;;;;;;;14.40;13.20;;;26.70;88.60;;;;;;5033009;28;20916;-75
2022/08/14 08:23:28;;;;;;;16.63;15.43;;;26.80;88.00;;;;;;5031223;28;20220;-75
2022/08/14 08:25:57;;;;;;;14.57;13.57;;;26.90;88.20;;;;;;5043933;28;20240;-75
2022/08/14 08:28:26;;;;;;;15.70;14.50;;;27.00;87.10;;;;;;5039688;28;20471;-75
2022/08/14 08:31:01;;;;;;;15.87;14.70;;;27.10;86.80;;;;;;5031583;28;20939;-75
2022/08/14 08:33:32;;;;;;;16.20;14.90;;;27.20;86.20;;;;;;5033170;28;20439;-75
2022/08/14 08:36:04;;;;;;;14.10;12.90;;;27.40;86.10;;;;;;5027770;28;20437;-75
2022/08/14 08:38:31;;;;;;;15.53;14.33;;;27.40;84.40;;;;;;5024037;28;20472;-75
2022/08/14 08:40:58;;;;;;;19.00;17.40;;;27.60;85.10;;;;;;5023495;28;20494;-72
2022/08/14 08:43:33;;;;;;;15.07;13.90;;;27.60;83.60;;;;;;5029145;28;20483;-75
2022/08/14 08:46:05;;;;;;;15.63;14.43;;;27.60;84.70;;;;;;5029769;28;20445;-75
2022/08/14 08:48:44;;;;;;;18.23;14.50;;;27.70;85.60;;;;;;5031382;28;20448;-75
2022/08/14 08:51:40;;;;;;;162.07;146.07;;;27.90;85.20;;;;;;5034005;28;20543;-75
2022/08/14 08:54:12;;;;;;;83.00;74.13;;;28.10;84.90;;;;;;4981973;28;20453;-75
2022/08/14 08:56:44;;;;;;;18.33;16.83;;;28.20;83.60;;;;;;5032680;28;20797;-76
2022/08/14 08:59:22;;;;;;;15.53;14.33;;;28.40;83.40;;;;;;5032377;28;20436;-76
2022/08/14 09:01:51;;;;;;;15.13;13.87;;;28.50;82.20;;;;;;5033546;28;20508;-75
2022/08/14 09:04:18;;;;;;;15.47;14.30;;;28.60;82.30;;;;;;5034057;28;20501;-75
2022/08/14 09:06:46;;;;;;;14.17;13.07;;;28.70;81.40;;;;;;5031708;28;20417;-76
2022/08/14 09:09:23;;;;;;;15.20;13.80;;;28.90;80.50;;;;;;5026336;28;20455;-75
2022/08/14 09:11:53;;;;;;;14.50;13.40;;;29.00;80.50;;;;;;5031232;28;20509;-76
2022/08/14 09:14:22;;;;;;;14.47;13.30;;;29.20;79.60;;;;;;4971450;28;20419;-74
2022/08/14 09:16:51;;;;;;;14.67;13.43;;;29.30;77.80;;;;;;4971119;28;20426;-76
2022/08/14 09:19:17;;;;;;;13.20;12.30;;;29.40;76.60;;;;;;4969617;28;20435;-77
2022/08/14 09:21:43;;;;;;;12.70;11.77;;;29.50;76.10;;;;;;4971019;28;20432;-73
2022/08/14 09:24:09;;;;;;;13.97;12.80;;;29.60;75.80;;;;;;4970091;28;20487;-74
2022/08/14 09:26:36;;;;;;;14.77;13.67;;;29.80;75.30;;;;;;4970976;28;20840;-75
2022/08/14 09:29:04;;;;;;;13.30;12.40;;;29.90;74.90;;;;;;4968243;28;20193;-77
2022/08/14 09:31:32;;;;;;;13.93;13.03;;;30.00;73.40;;;;;;4987210;28;20426;-78
2022/08/14 09:34:28;;;;;;;14.00;13.07;;;30.00;72.20;;;;;;4982807;28;20440;-80
2022/08/14 09:37:20;;;;;;;12.30;11.50;;;30.20;72.90;;;;;;4969726;28;20444;-78
2022/08/14 09:39:57;;;;;;;12.37;11.60;;;30.40;69.50;;;;;;4962173;28;20434;-71
2022/08/14 09:42:47;;;;;;;13.70;12.60;;;30.40;69.70;;;;;;4969339;28;20483;-72
2022/08/14 09:45:17;;;;;;;10.97;10.17;;;30.50;68.00;;;;;;4988909;28;20536;-70
2022/08/14 09:47:54;;;;;;;11.40;10.70;;;30.50;64.70;;;;;;5025853;28;20500;-70
2022/08/14 09:50:47;;;;;;;198.30;177.90;;;30.70;66.20;;;;;;5036770;28;20912;-70
2022/08/14 09:53:17;;;;;;;35.97;32.80;;;30.80;65.80;;;;;;5032308;28;20424;-70
2022/08/14 09:55:43;;;;;;;13.33;12.33;;;30.90;65.70;;;;;;5028503;28;20444;-71
2022/08/14 09:58:19;;;;;;;12.07;11.13;;;31.10;63.70;;;;;;5031924;28;20852;-70
2022/08/14 10:00:58;;;;;;;12.37;11.57;;;31.20;63.50;;;;;;5030400;28;20413;-71
2022/08/14 10:03:35;;;;;;;11.60;10.90;;;31.30;64.30;;;;;;5029106;28;20464;-70
2022/08/14 10:06:16;;;;;;;11.97;11.07;;;31.50;64.20;;;;;;5032200;28;20776;-70
2022/08/14 10:08:49;;;;;;;13.20;12.30;;;31.60;62.60;;;;;;5031525;28;20778;-71
2022/08/14 10:11:18;;;;;;;53.93;49.07;;;31.70;62.50;;;;;;5031586;28;20433;-70
2022/08/14 10:13:46;;;;;;;125.00;112.90;;;31.80;61.20;;;;;;5031909;28;20440;-71
2022/08/14 10:16:13;;;;;;;15.60;14.40;;;31.90;62.20;;;;;;5032110;28;20408;-70
2022/08/14 10:18:39;;;;;;;11.80;11.00;;;32.00;61.80;;;;;;5031109;28;20417;-70
2022/08/14 10:21:08;;;;;;;11.67;10.87;;;32.00;59.00;;;;;;5030075;28;20491;-70
2022/08/14 10:23:48;;;;;;;12.60;11.80;;;32.00;60.70;;;;;;5029999;28;20218;-70
2022/08/14 10:26:17;;;;;;;13.00;12.10;;;32.20;60.30;;;;;;5029731;28;20426;-71
2022/08/14 10:28:48;;;;;;;11.90;11.10;;;32.20;58.70;;;;;;5029007;28;20433;-70
2022/08/14 10:31:24;;;;;;;12.07;11.30;;;32.20;58.20;;;;;;5032694;28;20436;-70
2022/08/14 10:33:59;;;;;;;12.50;11.57;;;32.30;59.10;;;;;;5032862;28;20502;-69
2022/08/14 10:36:35;;;;;;;12.50;11.60;;;32.40;58.40;;;;;;5034949;28;20420;-70
2022/08/14 10:39:05;;;;;;;12.90;12.00;;;32.50;58.60;;;;;;5042330;28;20438;-70
2022/08/14 10:41:38;;;;;;;45.83;41.63;;;32.60;59.50;;;;;;5039145;28;20463;-70
2022/08/14 10:44:17;;;;;;;76.77;69.57;;;32.70;57.20;;;;;;5038456;28;20646;-71
2022/08/14 10:46:42;;;;;;;13.67;12.67;;;32.60;57.70;;;;;;5039007;28;20441;-71
2022/08/14 10:49:17;;;;;;;13.50;12.50;;;32.60;58.90;;;;;;5041945;28;20451;-70
2022/08/14 10:52:16;;;;;;;12.00;11.30;;;32.60;57.80;;;;;;5034395;28;20234;-71
2022/08/14 10:54:45;;;;;;;12.87;11.87;;;32.60;58.10;;;;;;5034055;28;20527;-71
2022/08/14 10:57:19;;;;;;;11.77;11.03;;;32.60;57.30;;;;;;5033776;28;20816;-71
2022/08/14 10:59:55;;;;;;;11.83;11.03;;;32.70;58.70;;;;;;5032785;28;20880;-71
2022/08/14 11:02:27;;;;;;;12.00;11.30;;;32.80;57.00;;;;;;5034464;28;20428;-70
2022/08/14 11:05:06;;;;;;;12.07;11.27;;;32.80;57.40;;;;;;5032531;28;20519;-71
2022/08/14 11:07:37;;;;;;;14.40;13.50;;;32.90;57.10;;;;;;5034542;28;20452;-70
2022/08/14 11:10:08;;;;;;;468.53;422.27;;;32.80;56.40;;;;;;5033899;28;20769;-70
2022/08/14 11:12:45;;;;;;;31.77;29.10;;;32.70;56.60;;;;;;5033673;28;20784;-70
2022/08/14 11:15:12;;;;;;;13.30;12.47;;;32.60;56.80;;;;;;5033722;28;20451;-70
2022/08/14 11:17:37;;;;;;;12.70;11.87;;;32.50;56.70;;;;;;5031932;28;20440;-70
2022/08/14 11:20:07;;;;;;;12.30;11.57;;;32.40;57.30;;;;;;5026668;28;20436;-67
2022/08/14 11:22:36;;;;;;;13.93;12.90;;;32.50;57.00;;;;;;5023727;28;20296;-70
2022/08/14 11:25:05;;;;;;;12.07;11.33;;;32.50;58.20;;;;;;5027319;28;20864;-70
2022/08/14 11:27:33;;;;;;;12.40;11.67;;;32.50;56.50;;;;;;5024817;28;20935;-70
2022/08/14 11:30:02;;;;;;;16.53;15.43;;;32.60;56.20;;;;;;5013992;28;20613;-68
2022/08/14 11:32:29;;;;;;;13.53;12.73;;;32.50;56.10;;;;;;5031301;28;20437;-68
2022/08/14 11:34:57;;;;;;;12.40;11.60;;;32.20;56.40;;;;;;5020157;28;20464;-70
2022/08/14 11:37:23;;;;;;;12.73;11.90;;;32.10;57.80;;;;;;5032172;28;20433;-70
2022/08/14 11:39:48;;;;;;;13.90;12.90;;;32.00;56.90;;;;;;5031683;28;20795;-70
2022/08/14 11:42:23;;;;;;;11.73;11.03;;;32.00;58.00;;;;;;5032240;28;20479;-70
2022/08/14 11:44:51;;;;;;;11.30;10.50;;;32.00;61.30;;;;;;5033274;28;20217;-70
2022/08/14 11:47:20;;;;;;;11.80;11.00;;;32.00;58.50;;;;;;5032752;28;20428;-70
2022/08/14 11:49:47;;;;;;;11.97;11.20;;;32.00;57.70;;;;;;5030885;28;20965;-70
2022/08/14 11:52:19;;;;;;;13.40;12.33;;;31.90;58.60;;;;;;5027131;28;20481;-70
2022/08/14 11:54:56;;;;;;;12.07;11.20;;;31.80;57.80;;;;;;5017382;28;20527;-71
2022/08/14 11:57:22;;;;;;;12.00;11.30;;;31.80;58.70;;;;;;5026181;28;20433;-70
2022/08/14 11:59:47;;;;;;;11.93;11.23;;;31.80;58.00;;;;;;5032029;28;20436;-70
2022/08/14 12:02:16;;;;;;;12.20;11.40;;;31.80;58.80;;;;;;5038290;28;20270;-70
2022/08/14 12:04:49;;;;;;;12.07;11.30;;;31.90;57.70;;;;;;5036935;28;20182;-70
2022/08/14 12:07:16;;;;;;;11.10;10.40;;;31.90;57.70;;;;;;5033685;28;20413;-70
2022/08/14 12:09:43;;;;;;;11.73;10.93;;;31.80;57.20;;;;;;5044704;28;20524;-70
2022/08/14 12:12:18;;;;;;;189.90;170.67;;;31.80;57.70;;;;;;5031624;28;20429;-70
2022/08/14 12:14:52;;;;;;;88.73;80.37;;;31.70;58.00;;;;;;5048808;28;20423;-70
2022/08/14 12:17:18;;;;;;;13.83;12.80;;;31.50;57.40;;;;;;5027294;28;20432;-68
2022/08/14 12:19:53;;;;;;;12.17;11.47;;;31.30;57.60;;;;;;5032729;28;20424;-68
2022/08/14 12:22:35;;;;;;;10.80;10.20;;;30.80;58.00;;;;;;5031625;28;20186;-68
2022/08/14 12:25:03;;;;;;;33.83;31.07;;;30.70;59.10;;;;;;5029494;28;20468;-68
2022/08/14 12:27:39;;;;;;;95.47;86.73;;;30.70;60.10;;;;;;5030437;28;20429;-68
2022/08/14 12:30:05;;;;;;;14.40;13.40;;;30.70;59.50;;;;;;5032596;28;20425;-67
2022/08/14 12:32:39;;;;;;;35.07;31.90;;;30.50;59.10;;;;;;5032895;28;20429;-68
2022/08/14 12:35:05;;;;;;;19.17;17.80;;;30.50;60.80;;;;;;5012815;28;20801;-67
2022/08/14 12:37:31;;;;;;;11.63;10.80;;;30.40;62.00;;;;;;5013675;28;20429;-68
2022/08/14 12:40:14;;;;;;;14.10;13.13;;;30.40;60.20;;;;;;5012859;28;20949;-68
2022/08/14 12:42:41;;;;;;;17.77;16.37;;;30.30;62.10;;;;;;5013280;28;20465;-67
2022/08/14 12:45:10;;;;;;;18.70;17.00;;;30.20;62.30;;;;;;5016562;28;20425;-68
2022/08/14 12:47:37;;;;;;;19.43;17.50;;;30.20;62.70;;;;;;5030295;28;20523;-68
2022/08/14 12:50:04;;;;;;;12.20;11.40;;;30.20;62.60;;;;;;5029156;28;20443;-67
2022/08/14 12:52:35;;;;;;;10.20;9.50;;;30.10;61.00;;;;;;5032507;28;20849;-68